createdAt,value
2018-07-27T00:02:09.978Z,24.60
2018-07-27T00:04:38.357Z,24.60
2018-07-27T00:07:07.317Z,24.60
2018-07-27T00:09:35.678Z,24.60
2018-07-27T00:12:04.256Z,24.50
2018-07-27T00:14:33.414Z,24.40
2018-07-27T00:17:01.753Z,24.40
2018-07-27T00:19:30.216Z,24.40
2018-07-27T00:21:59.474Z,24.40
2018-07-27T00:24:27.734Z,24.40
2018-07-27T00:29:24.756Z,24.30
2018-07-27T00:31:55.087Z,24.30
2018-07-27T00:34:24.248Z,24.30
2018-07-27T00:36:52.655Z,24.30
2018-07-27T00:39:21.032Z,24.40
2018-07-27T00:41:49.780Z,24.40
2018-07-27T00:44:18.446Z,24.40
2018-07-27T00:46:46.814Z,24.30
2018-07-27T00:49:15.208Z,24.30
2018-07-27T00:51:44.890Z,24.30
2018-07-27T00:54:13.288Z,24.20
2018-07-27T00:56:41.683Z,24.20
2018-07-27T00:59:10.316Z,24.20
2018-07-27T01:01:39.024Z,24.10
2018-07-27T01:04:07.704Z,24.10
2018-07-27T01:06:36.678Z,24.00
2018-07-27T01:09:08.085Z,24.00
2018-07-27T01:11:36.600Z,24.00
2018-07-27T01:14:05.237Z,24.00
2018-07-27T01:16:33.637Z,23.90
2018-07-27T01:19:02.063Z,23.90
2018-07-27T01:21:30.589Z,23.90
2018-07-27T01:23:59.046Z,23.90
2018-07-27T01:26:28.067Z,23.90
2018-07-27T01:28:56.856Z,23.80
2018-07-27T01:31:25.279Z,23.80
2018-07-27T01:33:54.768Z,23.80
2018-07-27T01:36:24.209Z,23.80
2018-07-27T01:38:52.888Z,23.80
2018-07-27T01:41:21.402Z,23.70
2018-07-27T01:43:49.949Z,23.60
2018-07-27T01:46:18.481Z,23.60
2018-07-27T01:48:46.919Z,23.60
2018-07-27T01:51:15.256Z,23.50
2018-07-27T01:53:43.840Z,23.50
2018-07-27T01:56:12.723Z,23.50
2018-07-27T01:58:41.963Z,23.40
2018-07-27T02:01:10.728Z,23.30
2018-07-27T02:03:39.612Z,23.30
2018-07-27T02:06:08.003Z,23.30
2018-07-27T02:08:36.505Z,23.30
2018-07-27T02:11:04.928Z,23.20
2018-07-27T02:13:33.377Z,23.20
2018-07-27T02:16:01.749Z,23.20
2018-07-27T02:20:58.503Z,23.10
2018-07-27T02:23:26.925Z,23.10
2018-07-27T02:25:55.264Z,23.00
2018-07-27T02:28:23.610Z,22.90
2018-07-27T02:30:51.973Z,23.00
2018-07-27T02:33:20.919Z,22.90
2018-07-27T02:35:49.307Z,22.90
2018-07-27T02:38:17.598Z,22.90
2018-07-27T02:40:45.937Z,22.90
2018-07-27T02:43:14.751Z,22.90
2018-07-27T02:45:43.086Z,22.80
2018-07-27T02:48:11.426Z,22.80
2018-07-27T02:50:39.874Z,22.80
2018-07-27T02:53:08.402Z,22.80
2018-07-27T02:55:37.089Z,22.70
2018-07-27T02:58:05.870Z,22.70
2018-07-27T03:00:34.255Z,22.70
2018-07-27T03:03:03.424Z,22.70
2018-07-27T03:05:34.832Z,22.60
2018-07-27T03:08:03.332Z,22.60
2018-07-27T03:10:31.797Z,22.60
2018-07-27T03:13:00.294Z,22.50
2018-07-27T03:15:28.647Z,22.60
2018-07-27T03:17:57.344Z,22.50
2018-07-27T03:20:25.722Z,22.60
2018-07-27T03:22:54.158Z,22.60
2018-07-27T03:25:22.587Z,22.60
2018-07-27T03:27:51.214Z,22.50
2018-07-27T03:30:19.646Z,22.40
2018-07-27T03:32:48.019Z,22.40
2018-07-27T03:35:16.393Z,22.40
2018-07-27T03:37:44.690Z,22.30
2018-07-27T03:40:13.113Z,22.30
2018-07-27T03:42:41.530Z,22.20
2018-07-27T03:45:10.118Z,22.20
2018-07-27T03:47:38.580Z,22.20
2018-07-27T03:50:06.940Z,22.20
2018-07-27T03:52:35.368Z,22.20
2018-07-27T03:55:03.798Z,22.20
2018-07-27T03:57:32.362Z,22.20
2018-07-27T04:00:03.642Z,22.20
2018-07-27T04:02:32.096Z,22.20
2018-07-27T04:05:00.468Z,22.20
2018-07-27T04:07:28.836Z,22.20
2018-07-27T04:09:57.148Z,22.30
2018-07-27T04:12:27.230Z,22.50
2018-07-27T04:14:55.898Z,22.70
2018-07-27T04:17:24.961Z,22.80
2018-07-27T04:19:53.797Z,22.90
2018-07-27T04:22:22.770Z,23.10
2018-07-27T04:24:52.380Z,23.20
2018-07-27T04:27:20.860Z,23.40
2018-07-27T04:29:49.313Z,23.50
2018-07-27T04:32:17.838Z,23.60
2018-07-27T04:34:46.440Z,23.80
2018-07-27T04:37:14.762Z,23.90
2018-07-27T04:39:43.275Z,23.90
2018-07-27T04:42:12.044Z,24.00
2018-07-27T04:44:40.515Z,24.10
2018-07-27T04:47:09.133Z,24.20
2018-07-27T04:49:37.995Z,24.20
2018-07-27T04:52:06.874Z,24.20
2018-07-27T04:54:35.291Z,24.40
2018-07-27T04:57:04.022Z,24.60
2018-07-27T04:59:32.363Z,24.80
2018-07-27T05:02:00.971Z,25.00
2018-07-27T05:04:29.399Z,24.90
2018-07-27T05:06:57.713Z,24.80
2018-07-27T05:09:26.146Z,25.10
2018-07-27T05:11:54.672Z,25.40
2018-07-27T05:16:51.013Z,25.70
2018-07-27T05:19:19.669Z,25.80
2018-07-27T05:21:48.020Z,25.80
2018-07-27T05:24:16.731Z,26.00
2018-07-27T05:26:45.055Z,26.00
2018-07-27T05:29:13.367Z,26.20
2018-07-27T05:31:41.931Z,26.40
2018-07-27T05:34:10.422Z,26.70
2018-07-27T05:36:38.780Z,27.50
2018-07-27T05:39:10.171Z,28.00
2018-07-27T05:41:38.525Z,28.20
2018-07-27T05:44:07.926Z,28.20
2018-07-27T05:46:36.405Z,27.80
2018-07-27T05:49:04.883Z,27.70
2018-07-27T05:51:33.294Z,27.40
2018-07-27T05:56:30.043Z,27.60
2018-07-27T05:58:58.391Z,27.70
2018-07-27T06:01:26.676Z,27.80
2018-07-27T06:03:54.956Z,27.90
2018-07-27T06:06:23.510Z,27.80
2018-07-27T06:08:51.915Z,27.90
2018-07-27T06:11:20.364Z,28.20
2018-07-27T06:16:17.733Z,27.80
2018-07-27T06:18:49.062Z,28.40
2018-07-27T06:21:17.404Z,28.70
2018-07-27T06:23:45.989Z,28.80
2018-07-27T06:26:14.258Z,28.80
2018-07-27T06:28:42.722Z,28.80
2018-07-27T06:31:11.160Z,28.60
2018-07-27T06:33:39.444Z,29.20
2018-07-27T06:36:08.322Z,29.20
2018-07-27T06:38:36.841Z,28.80
2018-07-27T06:41:05.677Z,29.00
2018-07-27T06:43:34.024Z,29.40
2018-07-27T06:46:02.336Z,29.40
2018-07-27T06:48:31.667Z,29.60
2018-07-27T06:50:59.959Z,29.80
2018-07-27T06:53:28.925Z,29.70
2018-07-27T06:55:57.377Z,30.10
2018-07-27T06:58:26.770Z,30.40
2018-07-27T07:03:23.093Z,30.40
2018-07-27T07:05:52.049Z,30.50
2018-07-27T07:08:20.437Z,30.70
2018-07-27T07:10:48.812Z,31.30
2018-07-27T07:13:17.311Z,31.00
2018-07-27T07:15:45.984Z,31.40
2018-07-27T07:18:14.400Z,30.90
2018-07-27T07:20:42.887Z,30.60
2018-07-27T07:23:11.144Z,31.10
2018-07-27T07:25:39.676Z,31.30
2018-07-27T07:28:08.075Z,31.70
2018-07-27T07:30:36.447Z,32.20
2018-07-27T07:33:04.841Z,32.30
2018-07-27T07:35:33.249Z,32.40
2018-07-27T07:38:01.975Z,32.50
2018-07-27T07:40:30.326Z,32.50
2018-07-27T07:42:59.185Z,32.70
2018-07-27T07:45:27.688Z,32.60
2018-07-27T07:47:56.257Z,32.90
2018-07-27T07:50:24.623Z,33.00
2018-07-27T07:52:53.007Z,33.30
2018-07-27T07:55:21.447Z,33.10
2018-07-27T07:57:49.890Z,33.10
2018-07-27T08:00:19.072Z,33.30
2018-07-27T08:02:47.454Z,33.60
2018-07-27T08:05:15.841Z,33.60
2018-07-27T08:07:44.243Z,34.10
2018-07-27T08:10:12.673Z,34.40
2018-07-27T08:12:41.122Z,33.60
2018-07-27T08:15:09.452Z,33.40
2018-07-27T08:17:37.985Z,33.70
2018-07-27T08:20:06.474Z,33.90
2018-07-27T08:22:34.757Z,33.40
2018-07-27T08:25:03.142Z,33.40
2018-07-27T08:27:31.537Z,33.10
2018-07-27T08:29:59.923Z,33.00
2018-07-27T08:32:28.525Z,33.40
2018-07-27T08:34:57.007Z,33.80
2018-07-27T08:37:25.419Z,33.70
2018-07-27T08:39:54.633Z,33.10
2018-07-27T08:42:23.003Z,33.20
2018-07-27T08:44:51.316Z,33.70
2018-07-27T08:47:19.941Z,34.00
2018-07-27T08:49:48.369Z,34.30
2018-07-27T08:52:16.689Z,34.60
2018-07-27T08:54:45.040Z,34.70
2018-07-27T08:57:13.901Z,34.70
2018-07-27T08:59:42.226Z,35.20
2018-07-27T09:02:10.576Z,35.20
2018-07-27T09:04:38.971Z,34.60
2018-07-27T09:07:07.350Z,34.00
2018-07-27T09:12:04.001Z,34.30
2018-07-27T09:14:32.600Z,34.80
2018-07-27T09:17:01.357Z,34.30
2018-07-27T09:19:29.981Z,34.00
2018-07-27T09:21:58.524Z,34.00
2018-07-27T09:24:27.368Z,33.90
2018-07-27T09:26:55.728Z,34.10
2018-07-27T09:29:24.314Z,34.50
2018-07-27T09:31:52.602Z,34.20
2018-07-27T09:39:02.811Z,34.20
2018-07-27T09:44:02.230Z,35.40
2018-07-27T09:46:30.639Z,35.00
2018-07-27T09:51:27.243Z,34.30
2018-07-27T09:53:58.809Z,34.70
2018-07-27T09:56:27.503Z,35.20
2018-07-27T09:58:55.776Z,34.80
2018-07-27T10:01:25.482Z,34.90
2018-07-27T10:03:54.885Z,35.40
2018-07-27T10:06:23.214Z,34.70
2018-07-27T10:08:51.642Z,34.50
2018-07-27T10:11:27.324Z,34.40
2018-07-27T10:13:55.562Z,34.80
2018-07-27T10:16:28.519Z,35.20
2018-07-27T10:18:59.598Z,34.50
2018-07-27T10:21:44.952Z,34.50
2018-07-27T10:24:13.358Z,34.60
2018-07-27T10:29:56.992Z,35.50
2018-07-27T10:32:25.429Z,36.10
2018-07-27T10:34:53.826Z,35.50
2018-07-27T10:37:22.430Z,35.10
2018-07-27T10:39:50.826Z,35.00
2018-07-27T10:42:19.261Z,35.00
2018-07-27T10:44:47.800Z,35.40
2018-07-27T10:47:16.266Z,34.90
2018-07-27T10:49:44.855Z,34.90
2018-07-27T10:52:13.141Z,35.50
2018-07-27T10:54:41.514Z,35.50
2018-07-27T10:57:10.257Z,35.00
2018-07-27T10:59:38.750Z,35.20
2018-07-27T11:02:07.179Z,35.50
2018-07-27T11:04:35.570Z,35.60
2018-07-27T11:07:04.157Z,35.40
2018-07-27T11:09:32.629Z,35.00
2018-07-27T11:12:01.137Z,34.90
2018-07-27T11:14:29.602Z,34.90
2018-07-27T11:16:58.128Z,34.90
2018-07-27T11:19:26.500Z,35.00
2018-07-27T11:21:55.125Z,35.10
2018-07-27T11:24:23.643Z,34.90
2018-07-27T11:26:52.086Z,35.30
2018-07-27T11:29:20.470Z,35.10
2018-07-27T11:31:48.834Z,35.60
2018-07-27T11:34:17.254Z,36.20
2018-07-27T11:36:45.773Z,35.30
2018-07-27T11:39:14.120Z,34.50
2018-07-27T11:41:42.784Z,34.50
2018-07-27T11:44:11.293Z,34.70
2018-07-27T11:46:39.944Z,35.00
2018-07-27T11:49:08.369Z,35.50
2018-07-27T11:51:36.685Z,34.80
2018-07-27T11:54:05.003Z,35.30
2018-07-27T11:56:34.339Z,35.20
2018-07-27T11:59:02.797Z,35.10
2018-07-27T12:01:31.511Z,35.40
2018-07-27T12:04:00.020Z,35.80
2018-07-27T12:06:28.441Z,36.00
2018-07-27T12:08:56.921Z,35.70
2018-07-27T12:11:25.312Z,35.70
2018-07-27T12:13:54.400Z,35.50
2018-07-27T12:16:22.756Z,35.10
2018-07-27T12:21:19.555Z,35.40
2018-07-27T12:23:51.356Z,35.80
2018-07-27T12:26:19.725Z,35.90
2018-07-27T12:28:48.830Z,36.00
2018-07-27T12:31:19.137Z,36.00
2018-07-27T12:33:48.441Z,35.90
2018-07-27T12:36:17.697Z,35.60
2018-07-27T12:38:46.264Z,35.70
2018-07-27T12:41:17.097Z,35.80
2018-07-27T12:43:46.118Z,36.10
2018-07-27T12:46:14.554Z,35.80
2018-07-27T12:48:43.080Z,35.40
2018-07-27T12:51:11.696Z,35.20
2018-07-27T12:53:40.241Z,35.80
2018-07-27T12:56:09.477Z,36.00
2018-07-27T12:58:37.804Z,35.80
2018-07-27T13:01:06.406Z,36.20
2018-07-27T13:03:34.743Z,36.60
2018-07-27T13:06:03.181Z,36.90
2018-07-27T13:08:34.507Z,36.40
2018-07-27T13:11:02.878Z,35.70
2018-07-27T13:13:31.352Z,36.30
2018-07-27T13:16:00.052Z,36.40
2018-07-27T13:18:29.211Z,36.20
2018-07-27T13:20:57.724Z,36.10
2018-07-27T13:23:26.436Z,36.10
2018-07-27T13:28:32.831Z,36.20
2018-07-27T13:31:01.222Z,35.70
2018-07-27T13:33:31.013Z,35.40
2018-07-27T13:38:29.755Z,35.00
2018-07-27T13:40:58.487Z,35.50
2018-07-27T13:43:27.437Z,36.10
2018-07-27T13:45:56.423Z,36.10
2018-07-27T13:48:25.338Z,35.40
2018-07-27T13:50:54.338Z,35.00
2018-07-27T13:53:22.728Z,35.40
2018-07-27T13:55:51.416Z,35.40
2018-07-27T13:58:20.480Z,35.20
2018-07-27T14:00:49.015Z,35.50
2018-07-27T14:03:18.069Z,35.30
2018-07-27T14:05:47.794Z,35.20
2018-07-27T14:08:16.275Z,35.10
2018-07-27T14:10:46.461Z,35.20
2018-07-27T14:13:15.038Z,34.60
2018-07-27T14:15:43.504Z,34.40
2018-07-27T14:18:15.134Z,34.40
2018-07-27T14:20:43.608Z,34.30
2018-07-27T14:23:12.115Z,34.20
2018-07-27T14:25:41.526Z,34.00
2018-07-27T14:28:10.289Z,33.90
2018-07-27T14:30:40.277Z,34.00
2018-07-27T14:33:08.661Z,34.10
2018-07-27T14:35:37.994Z,34.10
2018-07-27T14:38:06.919Z,34.00
2018-07-27T14:40:36.284Z,33.90
2018-07-27T14:43:05.344Z,33.80
2018-07-27T14:45:33.924Z,33.70
2018-07-27T14:48:03.489Z,33.70
2018-07-27T14:50:32.717Z,33.70
2018-07-27T14:53:01.165Z,33.50
2018-07-27T14:55:29.501Z,33.60
2018-07-27T14:57:58.030Z,33.50
2018-07-27T15:00:26.531Z,33.60
2018-07-27T15:02:54.970Z,33.60
2018-07-27T15:05:24.016Z,33.50
2018-07-27T15:07:52.646Z,33.60
2018-07-27T15:10:21.310Z,33.60
2018-07-27T15:12:49.801Z,33.60
2018-07-27T15:15:18.364Z,33.60
2018-07-27T15:17:46.865Z,33.40
2018-07-27T15:20:15.329Z,33.50
2018-07-27T15:22:44.647Z,33.60
2018-07-27T15:25:13.104Z,33.80
2018-07-27T15:27:41.633Z,33.70
2018-07-27T15:30:10.142Z,33.70
2018-07-27T15:32:38.683Z,33.50
2018-07-27T15:35:07.328Z,33.60
2018-07-27T15:37:36.156Z,33.60
2018-07-27T15:40:04.616Z,33.40
2018-07-27T15:42:33.168Z,33.40
2018-07-27T15:45:01.786Z,33.50
2018-07-27T15:47:30.300Z,33.60
2018-07-27T15:49:58.804Z,33.50
2018-07-27T15:52:27.298Z,33.40
2018-07-27T15:54:55.631Z,33.50
2018-07-27T15:57:25.547Z,33.40
2018-07-27T15:59:54.025Z,33.40
2018-07-27T16:02:22.489Z,33.50
2018-07-27T16:04:50.875Z,33.50
2018-07-27T16:07:19.830Z,33.60
2018-07-27T16:09:48.256Z,33.50
2018-07-27T16:12:17.720Z,33.40
2018-07-27T16:14:46.253Z,33.40
2018-07-27T16:17:15.100Z,33.40
2018-07-27T16:19:43.629Z,33.40
2018-07-27T16:22:12.308Z,33.30
2018-07-27T16:24:40.973Z,33.30
2018-07-27T16:27:09.477Z,33.40
2018-07-27T16:29:37.983Z,33.30
2018-07-27T16:32:06.813Z,33.40
2018-07-27T16:34:35.214Z,33.40
2018-07-27T16:37:03.698Z,33.30
2018-07-27T16:39:33.323Z,33.30
2018-07-27T16:42:01.831Z,33.40
2018-07-27T16:44:30.352Z,33.40
2018-07-27T16:46:58.846Z,33.40
2018-07-27T16:49:28.357Z,33.30
2018-07-27T16:51:57.126Z,33.40
2018-07-27T16:54:25.595Z,33.40
2018-07-27T16:56:54.216Z,33.30
2018-07-27T16:59:24.471Z,33.20
2018-07-27T17:01:55.950Z,33.20
2018-07-27T17:04:25.082Z,33.20
2018-07-27T17:06:59.262Z,33.20
2018-07-27T17:09:27.957Z,33.20
2018-07-27T17:11:56.316Z,33.20
2018-07-27T17:14:25.250Z,33.20
2018-07-27T17:16:54.708Z,33.20
2018-07-27T17:19:23.113Z,33.10
2018-07-27T17:21:51.575Z,33.10
2018-07-27T17:24:20.207Z,33.00
2018-07-27T17:26:48.970Z,32.90
2018-07-27T17:29:17.484Z,33.00
2018-07-27T17:31:45.849Z,33.00
2018-07-27T17:34:14.810Z,33.00
2018-07-27T17:36:44.140Z,33.00
2018-07-27T17:39:12.670Z,32.90
2018-07-27T17:41:41.554Z,32.90
2018-07-27T17:44:10.724Z,32.90
2018-07-27T17:46:39.677Z,32.90
2018-07-27T17:49:15.809Z,32.90
2018-07-27T17:51:44.193Z,32.90
2018-07-27T17:54:12.721Z,32.80
2018-07-27T17:56:41.673Z,32.80
2018-07-27T17:59:10.163Z,32.80
2018-07-27T18:01:38.530Z,32.70
2018-07-27T18:04:08.315Z,32.70
2018-07-27T18:06:36.786Z,32.70
2018-07-27T18:09:08.718Z,32.60
2018-07-27T18:11:37.609Z,32.60
2018-07-27T18:14:06.214Z,32.60
2018-07-27T18:16:34.566Z,32.50
2018-07-27T18:19:03.137Z,32.50
2018-07-27T18:21:31.499Z,32.40
2018-07-27T18:23:59.896Z,32.40
2018-07-27T18:26:28.600Z,32.30
2018-07-27T18:28:56.969Z,32.30
2018-07-27T18:31:25.361Z,32.30
2018-07-27T18:33:54.620Z,32.30
2018-07-27T18:36:24.966Z,32.20
2018-07-27T18:41:25.532Z,32.00
2018-07-27T18:43:55.186Z,31.90
2018-07-27T18:46:25.936Z,31.90
2018-07-27T18:48:55.660Z,31.90
2018-07-27T18:51:25.154Z,31.80
2018-07-27T18:53:54.959Z,31.80
2018-07-27T18:56:25.244Z,31.60
2018-07-27T18:58:57.419Z,31.60
2018-07-27T19:01:28.955Z,31.60
2018-07-27T19:03:58.457Z,31.60
2018-07-27T19:06:27.449Z,31.40
2018-07-27T19:08:56.710Z,31.40
2018-07-27T19:11:26.190Z,31.30
2018-07-27T19:13:55.063Z,31.30
2018-07-27T19:16:23.628Z,31.10
2018-07-27T19:18:52.561Z,31.00
2018-07-27T19:21:21.338Z,31.00
2018-07-27T19:23:49.822Z,30.80
2018-07-27T19:26:18.289Z,30.70
2018-07-27T19:28:46.794Z,30.50
2018-07-27T19:31:15.679Z,30.40
2018-07-27T19:33:45.017Z,30.40
2018-07-27T19:36:13.796Z,30.40
2018-07-27T19:38:42.392Z,30.40
2018-07-27T19:41:10.847Z,30.30
2018-07-27T19:43:41.406Z,30.20
2018-07-27T19:46:12.359Z,30.10
2018-07-27T19:48:40.939Z,30.00
2018-07-27T19:51:09.574Z,29.90
2018-07-27T19:53:40.281Z,29.90
2018-07-27T19:56:08.635Z,29.80
2018-07-27T19:58:37.282Z,29.80
2018-07-27T20:01:05.754Z,29.70
2018-07-27T20:03:35.037Z,29.60
2018-07-27T20:06:04.565Z,29.60
2018-07-27T20:08:33.079Z,29.50
2018-07-27T20:11:01.502Z,29.40
2018-07-27T20:13:29.902Z,29.40
2018-07-27T20:15:58.258Z,29.40
2018-07-27T20:18:26.658Z,29.30
2018-07-27T20:20:55.163Z,29.30
2018-07-27T20:23:23.814Z,29.20
2018-07-27T20:25:52.248Z,29.10
2018-07-27T20:28:20.632Z,29.10
2018-07-27T20:30:49.113Z,28.90
2018-07-27T20:33:17.586Z,28.90
2018-07-27T20:35:46.263Z,28.70
2018-07-27T20:38:14.669Z,28.60
2018-07-27T20:40:43.347Z,28.60
2018-07-27T20:43:14.981Z,28.50
2018-07-27T20:45:43.735Z,28.40
2018-07-27T20:48:12.347Z,28.30
2018-07-27T20:50:40.774Z,28.20
2018-07-27T20:53:09.320Z,28.10
2018-07-27T20:55:38.094Z,28.20
2018-07-27T20:58:08.223Z,28.20
2018-07-27T21:00:36.589Z,28.10
2018-07-27T21:03:05.191Z,28.10
2018-07-27T21:05:33.951Z,28.10
2018-07-27T21:08:03.042Z,28.10
2018-07-27T21:10:31.505Z,28.10
2018-07-27T21:13:00.282Z,28.00
2018-07-27T21:15:28.893Z,27.90
2018-07-27T21:17:59.555Z,27.90
2018-07-27T21:20:28.057Z,27.80
2018-07-27T21:22:56.931Z,27.70
2018-07-27T21:25:25.440Z,27.70
2018-07-27T21:27:54.944Z,27.60
2018-07-27T21:30:23.361Z,27.60
2018-07-27T21:32:52.134Z,27.50
2018-07-27T21:35:21.216Z,27.40
2018-07-27T21:37:51.270Z,27.30
2018-07-27T21:40:19.702Z,27.30
2018-07-27T21:42:49.137Z,27.20
2018-07-27T21:45:17.776Z,27.10
2018-07-27T21:47:46.280Z,27.00
2018-07-27T21:50:14.991Z,26.90
2018-07-27T21:52:43.901Z,26.80
2018-07-27T21:55:12.457Z,26.80
2018-07-27T21:57:41.746Z,26.60
2018-07-27T22:00:11.280Z,26.60
2018-07-27T22:02:40.459Z,26.50
2018-07-27T22:05:09.127Z,26.60
2018-07-27T22:10:06.380Z,26.50
2018-07-27T22:12:34.859Z,26.40
2018-07-27T22:15:03.510Z,26.40
2018-07-27T22:17:32.090Z,26.30
2018-07-27T22:20:00.535Z,26.20
2018-07-27T22:22:29.513Z,26.10
2018-07-27T22:24:58.356Z,26.00
2018-07-27T22:27:26.872Z,26.00
2018-07-27T22:29:55.784Z,25.90
2018-07-27T22:32:24.681Z,25.90
2018-07-27T22:34:53.045Z,25.80
2018-07-27T22:37:21.862Z,25.80
2018-07-27T22:39:50.217Z,25.80
2018-07-27T22:42:18.674Z,25.80
2018-07-27T22:44:48.187Z,25.70
2018-07-27T22:47:16.601Z,25.70
2018-07-27T22:49:46.301Z,25.70
2018-07-27T22:52:14.808Z,25.60
2018-07-27T22:54:43.461Z,25.50
2018-07-27T22:57:11.863Z,25.50
2018-07-27T22:59:40.272Z,25.40
2018-07-27T23:02:08.955Z,25.50
2018-07-27T23:04:37.355Z,25.40
2018-07-27T23:07:05.831Z,25.30
2018-07-27T23:09:34.264Z,25.20
2018-07-27T23:12:02.653Z,25.10
2018-07-27T23:16:59.172Z,25.00
2018-07-27T23:19:27.562Z,25.10
2018-07-27T23:21:56.049Z,25.00
2018-07-27T23:24:24.399Z,25.00
2018-07-27T23:26:52.739Z,25.00
2018-07-27T23:29:21.122Z,25.00
2018-07-27T23:31:49.823Z,25.00
2018-07-27T23:34:18.315Z,24.90
2018-07-27T23:36:46.752Z,25.00
2018-07-27T23:39:15.406Z,25.00
2018-07-27T23:41:43.874Z,24.90
2018-07-27T23:44:12.629Z,24.90
2018-07-27T23:46:41.003Z,24.80
2018-07-27T23:49:09.437Z,24.80
2018-07-27T23:51:37.822Z,24.80
2018-07-27T23:54:06.458Z,24.70
2018-07-27T23:56:34.791Z,24.80
2018-07-27T23:59:03.128Z,24.90
